CPA178 YMML-VHHH
Flight info
| Callsign | CPA178 |
|---|---|
| Flight time | N/A |
| Altitude | 32000 |
| Route | KEPPA H336 NATYA J19 BHI T25 YUSEF/N0499F340 T25 TNK J30 TN DCT BEDUG DCT BUTPA A461 TANAL/N0495F360 A461 ZAM A583 SABNO V542 BETTY |
| Aircraft | B77W/H-SDE1E2E3FGHIJ2J3J4J5M1RWXY/LB1D1 |
Departure
| Time | 2026-05-01 13:51 |
|---|---|
| Airport | Melbourne Airport (YMML) |
Arrival
| Time | N/A |
|---|---|
| Airport | Hong Kong International Airport (VHHH) |
| Time | Latitude | Longitude | Altitude | Speed | Heading |
|---|---|---|---|---|---|
| 2026-05-01 11:32 | -37.66765 | 144.84303 | 398 ft | 0 kts | 82° |
| 2026-05-01 11:34 | -37.66771 | 144.84455 | 398 ft | 0 kts | 171° |
| 2026-05-01 13:34 | -37.66746 | 144.84451 | 399 ft | 4 kts | 174° |
| 2026-05-01 13:35 | -37.66692 | 144.84450 | 402 ft | 4 kts | 195° |
| 2026-05-01 13:35 | -37.66672 | 144.84464 | 397 ft | 4 kts | 250° |
| 2026-05-01 13:35 | -37.66663 | 144.84526 | 398 ft | 4 kts | 261° |
| 2026-05-01 13:36 | -37.66659 | 144.84560 | 403 ft | 4 kts | 261° |
| 2026-05-01 13:36 | -37.66655 | 144.84589 | 402 ft | 2 kts | 261° |
| 2026-05-01 13:36 | -37.66655 | 144.84590 | 402 ft | 2 kts | 261° |
| 2026-05-01 13:41 | -37.66655 | 144.84589 | 404 ft | 0 kts | 262° |
| 2026-05-01 13:41 | -37.66661 | 144.84551 | 401 ft | 9 kts | 259° |
| 2026-05-01 13:41 | -37.66670 | 144.84462 | 403 ft | 11 kts | 263° |
| 2026-05-01 13:42 | -37.66683 | 144.84364 | 402 ft | 13 kts | 261° |
| 2026-05-01 13:42 | -37.66708 | 144.84235 | 398 ft | 17 kts | 238° |
| 2026-05-01 13:42 | -37.66814 | 144.84198 | 395 ft | 18 kts | 172° |
| 2026-05-01 13:42 | -37.66911 | 144.84215 | 393 ft | 10 kts | 172° |
| 2026-05-01 13:43 | -37.66923 | 144.84217 | 392 ft | 1 kts | 172° |
| 2026-05-01 13:43 | -37.66956 | 144.84223 | 392 ft | 10 kts | 171° |
| 2026-05-01 13:43 | -37.67055 | 144.84242 | 389 ft | 17 kts | 171° |
| 2026-05-01 13:43 | -37.67180 | 144.84267 | 387 ft | 19 kts | 171° |
| 2026-05-01 13:44 | -37.67316 | 144.84293 | 384 ft | 21 kts | 171° |
| 2026-05-01 13:44 | -37.67461 | 144.84320 | 381 ft | 21 kts | 171° |
| 2026-05-01 13:44 | -37.67610 | 144.84349 | 377 ft | 22 kts | 171° |
| 2026-05-01 13:44 | -37.67764 | 144.84378 | 376 ft | 22 kts | 171° |
| 2026-05-01 13:45 | -37.67918 | 144.84407 | 365 ft | 22 kts | 172° |
| 2026-05-01 13:45 | -37.68070 | 144.84434 | 363 ft | 22 kts | 172° |
| 2026-05-01 13:45 | -37.68227 | 144.84463 | 364 ft | 22 kts | 172° |
| 2026-05-01 13:45 | -37.68377 | 144.84443 | 360 ft | 22 kts | 208° |
| 2026-05-01 13:46 | -37.68507 | 144.84335 | 354 ft | 22 kts | 223° |
| 2026-05-01 13:46 | -37.68547 | 144.84259 | 353 ft | 0 kts | 255° |
| 2026-05-01 13:49 | -37.68548 | 144.84254 | 353 ft | 4 kts | 255° |
| 2026-05-01 13:49 | -37.68557 | 144.84171 | 353 ft | 13 kts | 274° |
| 2026-05-01 13:49 | -37.68517 | 144.84096 | 358 ft | 9 kts | 333° |
| 2026-05-01 13:49 | -37.68499 | 144.84088 | 356 ft | 0 kts | 342° |
| 2026-05-01 13:50 | -37.68484 | 144.84082 | 358 ft | 11 kts | 345° |
| 2026-05-01 13:50 | -37.68211 | 144.84028 | 360 ft | 78 kts | 353° |
| 2026-05-01 13:50 | -37.67411 | 144.83881 | 378 ft | 153 kts | 352° |
| 2026-05-01 13:50 | -37.66148 | 144.83645 | 481 ft | 204 kts | 351° |
| 2026-05-01 13:51 | -37.64706 | 144.83353 | 1183 ft | 216 kts | 351° |
| 2026-05-01 13:51 | -37.63296 | 144.83037 | 2805 ft | 191 kts | 353° |
| 2026-05-01 13:51 | -37.62012 | 144.82723 | 3821 ft | 188 kts | 353° |
| 2026-05-01 13:51 | -37.60682 | 144.82451 | 4236 ft | 199 kts | 354° |
| 2026-05-01 13:52 | -37.59276 | 144.82183 | 4665 ft | 210 kts | 353° |
| 2026-05-01 13:52 | -37.57831 | 144.81907 | 5289 ft | 210 kts | 352° |
| 2026-05-01 13:52 | -37.56368 | 144.81535 | 5714 ft | 220 kts | 343° |
| 2026-05-01 13:52 | -37.54945 | 144.80671 | 6041 ft | 238 kts | 326° |
| 2026-05-01 13:53 | -37.53675 | 144.79249 | 6498 ft | 248 kts | 319° |
| 2026-05-01 13:53 | -37.51138 | 144.76210 | 7708 ft | 256 kts | 320° |
| 2026-05-01 13:53 | -37.49836 | 144.74681 | 8436 ft | 255 kts | 320° |
| 2026-05-01 13:54 | -37.48522 | 144.73155 | 9091 ft | 259 kts | 321° |
| 2026-05-01 13:54 | -37.47161 | 144.71625 | 9638 ft | 267 kts | 321° |
| 2026-05-01 13:54 | -37.45742 | 144.70066 | 10234 ft | 272 kts | 321° |
| 2026-05-01 13:54 | -37.44305 | 144.68466 | 10748 ft | 282 kts | 321° |
| 2026-05-01 13:55 | -37.42786 | 144.66772 | 10959 ft | 302 kts | 321° |
| 2026-05-01 13:55 | -37.41153 | 144.64975 | 11106 ft | 323 kts | 321° |
| 2026-05-01 13:55 | -37.39397 | 144.63053 | 11307 ft | 343 kts | 321° |
| 2026-05-01 13:55 | -37.37571 | 144.61053 | 11781 ft | 354 kts | 321° |
| 2026-05-01 13:56 | -37.35692 | 144.58990 | 12333 ft | 363 kts | 321° |
| 2026-05-01 13:56 | -37.33772 | 144.56877 | 12998 ft | 369 kts | 321° |
| 2026-05-01 13:56 | -37.31857 | 144.54763 | 13681 ft | 374 kts | 321° |
| 2026-05-01 13:56 | -37.29863 | 144.52561 | 14311 ft | 379 kts | 320° |
| 2026-05-01 13:57 | -37.27898 | 144.50390 | 14961 ft | 383 kts | 320° |
| 2026-05-01 13:57 | -37.26547 | 144.48899 | 15457 ft | 384 kts | 321° |
| 2026-05-01 13:57 | -37.23883 | 144.45958 | 16419 ft | 386 kts | 321° |
| 2026-05-01 13:57 | -37.21862 | 144.43729 | 17051 ft | 390 kts | 321° |
| 2026-05-01 13:58 | -37.19835 | 144.41495 | 17682 ft | 394 kts | 321° |
| 2026-05-01 13:58 | -37.17765 | 144.39216 | 18332 ft | 398 kts | 321° |
| 2026-05-01 13:58 | -37.15676 | 144.36918 | 18934 ft | 401 kts | 321° |
| 2026-05-01 13:58 | -37.13574 | 144.34607 | 19536 ft | 403 kts | 320° |
| 2026-05-01 13:59 | -37.11460 | 144.32285 | 20129 ft | 405 kts | 320° |
| 2026-05-01 13:59 | -37.09331 | 144.29946 | 20710 ft | 408 kts | 320° |
| 2026-05-01 13:59 | -37.07195 | 144.27603 | 21287 ft | 410 kts | 319° |
| 2026-05-01 13:59 | -37.05042 | 144.25244 | 21860 ft | 413 kts | 319° |
| 2026-05-01 14:00 | -37.02874 | 144.22870 | 22465 ft | 414 kts | 319° |
| 2026-05-01 14:00 | -37.00702 | 144.20493 | 23046 ft | 416 kts | 319° |
| 2026-05-01 14:00 | -36.98535 | 144.18122 | 23566 ft | 419 kts | 319° |
| 2026-05-01 14:00 | -36.97076 | 144.16528 | 23862 ft | 422 kts | 319° |
| 2026-05-01 14:01 | -36.94856 | 144.14103 | 24265 ft | 425 kts | 319° |
| 2026-05-01 14:01 | -36.91897 | 144.10875 | 24820 ft | 428 kts | 319° |
| 2026-05-01 14:01 | -36.90377 | 144.09218 | 25116 ft | 430 kts | 319° |
| 2026-05-01 14:01 | -36.88122 | 144.06760 | 25547 ft | 432 kts | 319° |
| 2026-05-01 14:02 | -36.85849 | 144.04285 | 25936 ft | 435 kts | 319° |
| 2026-05-01 14:02 | -36.83591 | 144.01829 | 26315 ft | 437 kts | 319° |
| 2026-05-01 14:02 | -36.81336 | 143.99382 | 26690 ft | 438 kts | 320° |
| 2026-05-01 14:02 | -36.78841 | 143.97179 | 26964 ft | 444 kts | 332° |
| 2026-05-01 14:03 | -36.75943 | 143.95847 | 27243 ft | 445 kts | 341° |
| 2026-05-01 14:03 | -36.72964 | 143.94716 | 27519 ft | 450 kts | 341° |
| 2026-05-01 14:03 | -36.69966 | 143.93530 | 27869 ft | 452 kts | 340° |
| 2026-05-01 14:03 | -36.66974 | 143.92315 | 28253 ft | 453 kts | 340° |
| 2026-05-01 14:04 | -36.63976 | 143.91081 | 28604 ft | 455 kts | 340° |
| 2026-05-01 14:04 | -36.60959 | 143.89832 | 28907 ft | 458 kts | 339° |
| 2026-05-01 14:04 | -36.57933 | 143.88576 | 29212 ft | 460 kts | 339° |
| 2026-05-01 14:04 | -36.54890 | 143.87312 | 29506 ft | 462 kts | 339° |
| 2026-05-01 14:05 | -36.51836 | 143.86045 | 29787 ft | 464 kts | 339° |
| 2026-05-01 14:05 | -36.48820 | 143.84797 | 30054 ft | 465 kts | 339° |
| 2026-05-01 14:05 | -36.45716 | 143.83514 | 30408 ft | 465 kts | 339° |
| 2026-05-01 14:05 | -36.42704 | 143.82272 | 30770 ft | 463 kts | 339° |
| 2026-05-01 14:06 | -36.39651 | 143.81015 | 31138 ft | 461 kts | 339° |
| 2026-05-01 14:06 | -36.36639 | 143.79775 | 31488 ft | 459 kts | 339° |
| 2026-05-01 14:06 | -36.33612 | 143.78530 | 31800 ft | 458 kts | 339° |
| 2026-05-01 14:06 | -36.30584 | 143.77285 | 32061 ft | 459 kts | 339° |
| 2026-05-01 14:07 | -36.24490 | 143.74781 | 32156 ft | 462 kts | 339° |
| 2026-05-01 14:08 | -36.15383 | 143.71050 | 32146 ft | 457 kts | 339° |
| 2026-05-01 14:08 | -36.09393 | 143.68600 | 32159 ft | 456 kts | 339° |
| 2026-05-01 14:09 | -36.03378 | 143.66143 | 32153 ft | 456 kts | 339° |
| 2026-05-01 14:09 | -35.97357 | 143.63688 | 32154 ft | 456 kts | 339° |
| 2026-05-01 14:10 | -35.91403 | 143.61264 | 32147 ft | 457 kts | 339° |
| 2026-05-01 14:10 | -35.85360 | 143.58809 | 32154 ft | 457 kts | 339° |
| 2026-05-01 14:11 | -35.79311 | 143.56354 | 32156 ft | 458 kts | 339° |
| 2026-05-01 14:11 | -35.70267 | 143.52692 | 32146 ft | 458 kts | 339° |
| 2026-05-01 14:12 | -35.64209 | 143.50245 | 32141 ft | 458 kts | 339° |
| 2026-05-01 14:12 | -35.58155 | 143.47802 | 32149 ft | 458 kts | 339° |
| 2026-05-01 14:13 | -35.52107 | 143.45366 | 32148 ft | 457 kts | 339° |
| 2026-05-01 14:13 | -35.46060 | 143.42934 | 32140 ft | 457 kts | 339° |
| 2026-05-01 14:14 | -35.40015 | 143.40506 | 32138 ft | 457 kts | 339° |
| 2026-05-01 14:14 | -35.33976 | 143.38085 | 32143 ft | 457 kts | 339° |
| 2026-05-01 14:15 | -35.27935 | 143.35666 | 32142 ft | 457 kts | 339° |
| 2026-05-01 14:15 | -35.21890 | 143.33250 | 32141 ft | 457 kts | 339° |
| 2026-05-01 14:16 | -35.15877 | 143.30851 | 32140 ft | 457 kts | 339° |
| 2026-05-01 14:16 | -35.09813 | 143.28434 | 32139 ft | 458 kts | 339° |
| 2026-05-01 14:17 | -35.03761 | 143.26026 | 32139 ft | 458 kts | 339° |
| 2026-05-01 14:17 | -34.97715 | 143.23589 | 32125 ft | 457 kts | 336° |
| 2026-05-01 14:18 | -34.91985 | 143.20347 | 32137 ft | 453 kts | 330° |
| 2026-05-01 14:18 | -34.87322 | 143.17434 | 32132 ft | 453 kts | 330° |
| 2026-05-01 14:19 | -34.80743 | 143.13371 | 32136 ft | 453 kts | 330° |
| 2026-05-01 14:19 | -34.75111 | 143.09916 | 32136 ft | 453 kts | 330° |
| 2026-05-01 14:20 | -34.66656 | 143.04746 | 32125 ft | 453 kts | 330° |
| 2026-05-01 14:21 | -34.61028 | 143.01309 | 32127 ft | 453 kts | 330° |
| 2026-05-01 14:21 | -34.55496 | 142.97936 | 32126 ft | 453 kts | 330° |
| 2026-05-01 14:22 | -34.47058 | 142.92800 | 32126 ft | 452 kts | 330° |
| 2026-05-01 14:22 | -34.41441 | 142.89388 | 32124 ft | 451 kts | 330° |
| 2026-05-01 14:23 | -34.35830 | 142.85985 | 32123 ft | 451 kts | 330° |
| 2026-05-01 14:23 | -34.30215 | 142.82583 | 32124 ft | 451 kts | 330° |
| 2026-05-01 14:24 | -34.24600 | 142.79188 | 32123 ft | 451 kts | 330° |
| 2026-05-01 14:24 | -34.18983 | 142.75796 | 32134 ft | 451 kts | 330° |
| 2026-05-01 14:25 | -34.13374 | 142.72415 | 32118 ft | 450 kts | 330° |
| 2026-05-01 14:25 | -34.07771 | 142.69041 | 32121 ft | 449 kts | 330° |
| 2026-05-01 14:26 | -33.99399 | 142.64009 | 32118 ft | 448 kts | 330° |
| 2026-05-01 14:27 | -33.93819 | 142.60661 | 32119 ft | 448 kts | 330° |
| 2026-05-01 14:27 | -33.88276 | 142.57341 | 32111 ft | 448 kts | 330° |
| 2026-05-01 14:28 | -33.79899 | 142.52341 | 32125 ft | 448 kts | 330° |
| 2026-05-01 14:28 | -33.74299 | 142.49023 | 32121 ft | 448 kts | 330° |
| 2026-05-01 14:29 | -33.68700 | 142.45710 | 32101 ft | 448 kts | 330° |
| 2026-05-01 14:30 | -33.57513 | 142.39099 | 32105 ft | 447 kts | 330° |
| 2026-05-01 14:31 | -33.49170 | 142.34178 | 32107 ft | 447 kts | 330° |
| 2026-05-01 14:31 | -33.43591 | 142.30893 | 32107 ft | 447 kts | 330° |
| 2026-05-01 14:32 | -33.38009 | 142.27613 | 32105 ft | 446 kts | 330° |
| 2026-05-01 14:32 | -33.32434 | 142.24342 | 32102 ft | 445 kts | 330° |
| 2026-05-01 14:33 | -33.26910 | 142.21103 | 32102 ft | 444 kts | 330° |
| 2026-05-01 14:33 | -33.21348 | 142.17847 | 32101 ft | 444 kts | 330° |
| 2026-05-01 14:34 | -33.15805 | 142.14608 | 32106 ft | 443 kts | 330° |
| 2026-05-01 14:34 | -33.10262 | 142.11373 | 32091 ft | 443 kts | 329° |
| 2026-05-01 14:35 | -33.04747 | 142.08159 | 32099 ft | 443 kts | 329° |
| 2026-05-01 14:35 | -32.99222 | 142.04943 | 32101 ft | 443 kts | 329° |
| 2026-05-01 14:36 | -32.93678 | 142.01721 | 32102 ft | 443 kts | 330° |
| 2026-05-01 14:36 | -32.88223 | 141.98555 | 32096 ft | 444 kts | 330° |
| 2026-05-01 14:37 | -32.82671 | 141.95337 | 32085 ft | 444 kts | 330° |
| 2026-05-01 14:37 | -32.77121 | 141.92125 | 32094 ft | 444 kts | 330° |
| 2026-05-01 14:38 | -32.71564 | 141.88914 | 32094 ft | 444 kts | 330° |
| 2026-05-01 14:38 | -32.66005 | 141.85705 | 32093 ft | 444 kts | 330° |
| 2026-05-01 14:39 | -32.60439 | 141.82497 | 32092 ft | 444 kts | 330° |
| 2026-05-01 14:39 | -32.54881 | 141.79299 | 32091 ft | 444 kts | 329° |
| 2026-05-01 14:40 | -32.49331 | 141.76109 | 32084 ft | 443 kts | 329° |
| 2026-05-01 14:40 | -32.43779 | 141.72922 | 32091 ft | 443 kts | 329° |
| 2026-05-01 14:41 | -32.38271 | 141.69766 | 32089 ft | 443 kts | 329° |
| 2026-05-01 14:41 | -32.32730 | 141.66593 | 32090 ft | 443 kts | 329° |
| 2026-05-01 14:42 | -32.27177 | 141.63420 | 32084 ft | 443 kts | 329° |
| 2026-05-01 14:42 | -32.21635 | 141.60255 | 32090 ft | 443 kts | 329° |
| 2026-05-01 14:43 | -32.16078 | 141.57087 | 32093 ft | 443 kts | 329° |
| 2026-05-01 14:43 | -32.10519 | 141.53922 | 32091 ft | 444 kts | 329° |
| 2026-05-01 14:44 | -32.04952 | 141.50756 | 32084 ft | 444 kts | 329° |
| 2026-05-01 14:44 | -31.96817 | 141.45650 | 32092 ft | 440 kts | 323° |
| 2026-05-01 14:45 | -31.89066 | 141.39915 | 32090 ft | 440 kts | 323° |
| 2026-05-01 14:46 | -31.83865 | 141.36098 | 32094 ft | 441 kts | 323° |
| 2026-05-01 14:46 | -31.76055 | 141.30390 | 32080 ft | 440 kts | 323° |
| 2026-05-01 14:47 | -31.70867 | 141.26604 | 32094 ft | 439 kts | 323° |
| 2026-05-01 14:48 | -31.63088 | 141.20936 | 32071 ft | 438 kts | 323° |
| 2026-05-01 14:48 | -31.55364 | 141.15317 | 32071 ft | 437 kts | 323° |
| 2026-05-01 14:49 | -31.45862 | 141.08421 | 32060 ft | 437 kts | 323° |
| 2026-05-01 14:50 | -31.35542 | 141.00949 | 32066 ft | 436 kts | 323° |
| 2026-05-01 14:51 | -31.27917 | 140.95470 | 32062 ft | 436 kts | 323° |
| 2026-05-01 14:52 | -31.20150 | 140.89909 | 32063 ft | 436 kts | 323° |
| 2026-05-01 14:53 | -31.12390 | 140.84357 | 32057 ft | 435 kts | 323° |
| 2026-05-01 14:53 | -31.07232 | 140.80674 | 32056 ft | 434 kts | 323° |
| 2026-05-01 14:54 | -31.02081 | 140.77001 | 32049 ft | 433 kts | 323° |
| 2026-05-01 14:54 | -30.96955 | 140.73348 | 32048 ft | 433 kts | 323° |
| 2026-05-01 14:55 | -30.91821 | 140.69694 | 32055 ft | 432 kts | 323° |
| 2026-05-01 14:55 | -30.86689 | 140.66048 | 32036 ft | 432 kts | 323° |
| 2026-05-01 14:56 | -30.81584 | 140.62424 | 32049 ft | 432 kts | 323° |
| 2026-05-01 14:56 | -30.76446 | 140.58782 | 32046 ft | 432 kts | 323° |
| 2026-05-01 14:57 | -30.71310 | 140.55146 | 32045 ft | 432 kts | 323° |
| 2026-05-01 14:57 | -30.63605 | 140.49700 | 32041 ft | 432 kts | 323° |
| 2026-05-01 14:58 | -30.58461 | 140.46070 | 32018 ft | 432 kts | 323° |
| 2026-05-01 14:58 | -30.53323 | 140.42448 | 32036 ft | 432 kts | 323° |
| 2026-05-01 14:59 | -30.48187 | 140.38832 | 32042 ft | 432 kts | 323° |
| 2026-05-01 14:59 | -30.43045 | 140.35218 | 32041 ft | 431 kts | 323° |
| 2026-05-01 15:00 | -30.35391 | 140.29846 | 32037 ft | 431 kts | 323° |
| 2026-05-01 15:01 | -30.30265 | 140.26252 | 32010 ft | 430 kts | 323° |
| 2026-05-01 15:01 | -30.25141 | 140.22666 | 32036 ft | 430 kts | 322° |
| 2026-05-01 15:02 | -30.20015 | 140.19081 | 32046 ft | 431 kts | 322° |
| 2026-05-01 15:02 | -30.14890 | 140.15501 | 32031 ft | 430 kts | 322° |
| 2026-05-01 15:03 | -30.09765 | 140.11928 | 32031 ft | 430 kts | 322° |
| 2026-05-01 15:03 | -30.04644 | 140.08360 | 32032 ft | 430 kts | 322° |
| 2026-05-01 15:04 | -29.99532 | 140.04803 | 32023 ft | 429 kts | 322° |
| 2026-05-01 15:04 | -29.94410 | 140.01243 | 32034 ft | 430 kts | 322° |
| 2026-05-01 15:05 | -29.89369 | 139.97744 | 32037 ft | 431 kts | 322° |
| 2026-05-01 15:05 | -29.84222 | 139.94175 | 32041 ft | 431 kts | 322° |
| 2026-05-01 15:06 | -29.79076 | 139.90612 | 32039 ft | 432 kts | 322° |
| 2026-05-01 15:06 | -29.73926 | 139.87050 | 32031 ft | 431 kts | 322° |
| 2026-05-01 15:07 | -29.68781 | 139.83496 | 32022 ft | 431 kts | 322° |
| 2026-05-01 15:07 | -29.63523 | 139.80090 | 32026 ft | 435 kts | 325° |
| 2026-05-01 15:08 | -29.58205 | 139.76858 | 32029 ft | 436 kts | 325° |
| 2026-05-01 15:08 | -29.52840 | 139.73592 | 32032 ft | 436 kts | 325° |
| 2026-05-01 15:09 | -29.47480 | 139.70301 | 32023 ft | 436 kts | 325° |
| 2026-05-01 15:09 | -29.42131 | 139.67004 | 32008 ft | 436 kts | 324° |
| 2026-05-01 15:10 | -29.36779 | 139.63705 | 32019 ft | 437 kts | 324° |
| 2026-05-01 15:10 | -29.28743 | 139.58760 | 32021 ft | 437 kts | 325° |
| 2026-05-01 15:11 | -29.20725 | 139.53835 | 32019 ft | 438 kts | 325° |
| 2026-05-01 15:12 | -29.15349 | 139.50540 | 32021 ft | 438 kts | 324° |
| 2026-05-01 15:12 | -29.07290 | 139.45605 | 32006 ft | 438 kts | 324° |
| 2026-05-01 15:14 | -28.93827 | 139.37381 | 32012 ft | 440 kts | 325° |
| 2026-05-01 15:14 | -28.85761 | 139.32466 | 32011 ft | 440 kts | 325° |
| 2026-05-01 15:15 | -28.74965 | 139.25901 | 32013 ft | 440 kts | 325° |
| 2026-05-01 15:16 | -28.64170 | 139.19353 | 32021 ft | 439 kts | 325° |
| 2026-05-01 15:18 | -28.50685 | 139.11192 | 32022 ft | 440 kts | 325° |
| 2026-05-01 15:19 | -28.39893 | 139.04678 | 32006 ft | 441 kts | 325° |
| 2026-05-01 15:19 | -28.31830 | 138.99823 | 32016 ft | 442 kts | 325° |
| 2026-05-01 15:20 | -28.23682 | 138.94925 | 32013 ft | 441 kts | 325° |
| 2026-05-01 15:21 | -28.18257 | 138.91668 | 32017 ft | 442 kts | 325° |
| 2026-05-01 15:21 | -28.12820 | 138.88408 | 32017 ft | 442 kts | 325° |
| 2026-05-01 15:22 | -28.04669 | 138.83528 | 32015 ft | 441 kts | 325° |
| 2026-05-01 15:22 | -27.99290 | 138.80311 | 31991 ft | 441 kts | 325° |
| 2026-05-01 15:23 | -27.93868 | 138.77073 | 32010 ft | 441 kts | 325° |
| 2026-05-01 15:23 | -27.88444 | 138.73837 | 32014 ft | 441 kts | 325° |
| 2026-05-01 15:24 | -27.83019 | 138.70604 | 32014 ft | 441 kts | 325° |
| 2026-05-01 15:24 | -27.77582 | 138.67368 | 32014 ft | 441 kts | 326° |
| 2026-05-01 15:25 | -27.72151 | 138.64139 | 32022 ft | 441 kts | 326° |
| 2026-05-01 15:25 | -27.66715 | 138.60910 | 32008 ft | 441 kts | 326° |
| 2026-05-01 15:26 | -27.61273 | 138.57683 | 32014 ft | 442 kts | 326° |
| 2026-05-01 15:26 | -27.55829 | 138.54457 | 32005 ft | 442 kts | 326° |
| 2026-05-01 15:27 | -27.50371 | 138.51226 | 32010 ft | 443 kts | 326° |
| 2026-05-01 15:28 | -27.42219 | 138.46409 | 31989 ft | 443 kts | 326° |
| 2026-05-01 15:28 | -27.36757 | 138.43185 | 32003 ft | 443 kts | 326° |
| 2026-05-01 15:29 | -27.28556 | 138.38352 | 32006 ft | 444 kts | 326° |
| 2026-05-01 15:30 | -27.18522 | 138.32449 | 32008 ft | 444 kts | 326° |
| 2026-05-01 15:31 | -27.01154 | 138.22258 | 32005 ft | 445 kts | 326° |
| 2026-05-01 15:32 | -26.90227 | 138.15866 | 31999 ft | 445 kts | 326° |
| 2026-05-01 15:34 | -26.73763 | 138.06270 | 32006 ft | 445 kts | 326° |